createdAt,value
2023-05-25T00:02:09.290Z,6.10
2023-05-25T00:04:38.470Z,5.07
2023-05-25T00:07:06.771Z,5.40
2023-05-25T00:09:36.362Z,5.47
2023-05-25T00:12:04.840Z,5.27
2023-05-25T00:14:33.020Z,5.33
2023-05-25T00:17:03.984Z,5.13
2023-05-25T00:19:34.003Z,5.37
2023-05-25T00:22:03.048Z,5.17
2023-05-25T00:24:31.801Z,5.50
2023-05-25T00:27:00.536Z,5.43
2023-05-25T00:29:28.966Z,5.40
2023-05-25T00:31:57.229Z,5.97
2023-05-25T00:34:25.590Z,5.67
2023-05-25T00:36:55.356Z,6.03
2023-05-25T00:39:23.525Z,5.20
2023-05-25T00:41:51.869Z,5.20
2023-05-25T00:44:21.676Z,5.50
2023-05-25T00:46:52.448Z,5.47
2023-05-25T00:49:23.521Z,5.50
2023-05-25T00:51:54.404Z,5.60
2023-05-25T00:54:22.916Z,5.53
2023-05-25T00:56:57.241Z,5.60
2023-05-25T00:59:35.689Z,6.07
2023-05-25T01:02:06.969Z,5.53
2023-05-25T01:04:38.105Z,6.10
2023-05-25T01:07:12.848Z,5.70
2023-05-25T01:09:44.684Z,5.50
2023-05-25T01:12:15.980Z,6.00
2023-05-25T01:14:46.734Z,5.60
2023-05-25T01:17:16.334Z,6.17
2023-05-25T01:19:49.705Z,5.43
2023-05-25T01:22:38.174Z,6.23
2023-05-25T01:25:14.642Z,5.70
2023-05-25T01:27:49.709Z,5.47
2023-05-25T01:30:23.287Z,5.70
2023-05-25T01:32:54.319Z,6.57
2023-05-25T01:35:24.128Z,6.37
2023-05-25T01:37:53.971Z,5.70
2023-05-25T01:40:22.257Z,6.37
2023-05-25T01:42:50.371Z,6.40
2023-05-25T01:45:18.570Z,6.10
2023-05-25T01:47:58.547Z,5.83
2023-05-25T01:50:52.332Z,5.73
2023-05-25T01:53:27.656Z,6.23
2023-05-25T01:56:01.683Z,5.97
2023-05-25T01:58:36.539Z,6.30
2023-05-25T02:01:05.161Z,6.47
2023-05-25T02:03:33.455Z,6.33
2023-05-25T02:06:01.825Z,6.17
2023-05-25T02:08:31.438Z,6.57
2023-05-25T02:10:59.566Z,6.90
2023-05-25T02:13:27.875Z,7.43
2023-05-25T02:15:56.348Z,6.83
2023-05-25T02:18:24.754Z,6.87
2023-05-25T02:20:53.269Z,7.23
2023-05-25T02:23:21.709Z,6.93
2023-05-25T02:25:51.678Z,6.57
2023-05-25T02:28:19.993Z,6.37
2023-05-25T02:30:48.197Z,6.47
2023-05-25T02:33:16.413Z,6.70
2023-05-25T02:35:45.034Z,7.00
2023-05-25T02:38:13.433Z,7.27
2023-05-25T02:40:42.665Z,6.57
2023-05-25T02:43:12.157Z,7.47
2023-05-25T02:45:40.339Z,6.77
2023-05-25T02:48:08.550Z,7.30
2023-05-25T02:50:37.022Z,7.43
2023-05-25T02:53:05.248Z,7.43
2023-05-25T02:55:33.413Z,7.90
2023-05-25T02:58:01.609Z,7.50
2023-05-25T03:00:31.907Z,7.37
2023-05-25T03:03:00.212Z,7.93
2023-05-25T03:05:28.374Z,8.03
2023-05-25T03:07:56.536Z,7.87
2023-05-25T03:10:24.649Z,7.73
2023-05-25T03:12:52.757Z,7.90
2023-05-25T03:15:20.991Z,7.37
2023-05-25T03:17:50.889Z,7.13
2023-05-25T03:20:20.807Z,6.77
2023-05-25T03:22:48.956Z,7.47
2023-05-25T03:25:17.268Z,7.37
2023-05-25T03:27:45.449Z,8.67
2023-05-25T03:30:15.004Z,8.43
2023-05-25T03:32:43.261Z,8.87
2023-05-25T03:35:12.899Z,8.63
2023-05-25T03:37:41.058Z,8.10
2023-05-25T03:40:11.513Z,8.83
2023-05-25T03:42:40.015Z,8.40
2023-05-25T03:45:10.017Z,8.87
2023-05-25T03:47:38.664Z,9.17
2023-05-25T03:50:08.755Z,9.27
2023-05-25T03:52:38.320Z,8.73
2023-05-25T03:55:07.385Z,9.57
2023-05-25T03:57:35.674Z,9.23
2023-05-25T04:00:04.720Z,9.10
2023-05-25T04:02:34.672Z,9.30
2023-05-25T04:05:03.028Z,8.50
2023-05-25T04:07:31.249Z,8.60
2023-05-25T04:10:00.963Z,8.33
2023-05-25T04:12:29.169Z,8.43
2023-05-25T04:14:57.429Z,8.40
2023-05-25T04:17:25.731Z,7.87
2023-05-25T04:19:54.213Z,8.73
2023-05-25T04:22:22.395Z,8.40
2023-05-25T04:24:50.623Z,8.93
2023-05-25T04:27:20.961Z,8.60
2023-05-25T04:29:50.428Z,8.50
2023-05-25T04:32:18.826Z,8.70
2023-05-25T04:34:48.211Z,8.47
2023-05-25T04:37:17.200Z,8.13
2023-05-25T04:39:45.390Z,8.63
2023-05-25T04:42:13.546Z,8.27
2023-05-25T04:44:43.169Z,8.10
2023-05-25T04:47:12.167Z,8.33
2023-05-25T04:49:40.314Z,8.47
2023-05-25T04:52:08.458Z,7.90
2023-05-25T04:54:37.410Z,7.50
2023-05-25T04:57:06.296Z,7.27
2023-05-25T04:59:34.506Z,7.73
2023-05-25T05:02:04.053Z,6.95
2023-05-25T05:04:32.226Z,7.30
2023-05-25T05:07:00.920Z,7.00
2023-05-25T05:09:29.054Z,13.70
2023-05-25T05:11:57.245Z,7.05
2023-05-25T05:14:25.425Z,7.88
2023-05-25T05:16:53.524Z,7.82
2023-05-25T05:19:23.511Z,8.27
2023-05-25T05:21:51.636Z,7.80
2023-05-25T05:24:19.732Z,8.23
2023-05-25T05:26:56.298Z,8.13
2023-05-25T05:29:26.695Z,8.50
2023-05-25T05:31:55.383Z,8.55
2023-05-25T05:34:24.906Z,8.60
2023-05-25T05:36:58.170Z,8.48
2023-05-25T05:39:28.206Z,9.60
2023-05-25T05:41:57.056Z,10.07
2023-05-25T05:44:28.819Z,9.05
2023-05-25T05:47:00.833Z,9.63
2023-05-25T05:49:31.812Z,9.20
2023-05-25T05:52:00.377Z,9.70
2023-05-25T05:54:28.536Z,9.98
2023-05-25T05:56:56.781Z,9.73
2023-05-25T05:59:24.925Z,10.32
2023-05-25T06:01:53.080Z,9.88
2023-05-25T06:04:25.188Z,9.43
2023-05-25T06:06:54.626Z,9.27
2023-05-25T06:09:22.764Z,9.38
2023-05-25T06:11:51.461Z,10.75
2023-05-25T06:14:19.692Z,10.55
2023-05-25T06:16:47.787Z,10.23
2023-05-25T06:19:16.091Z,13.40
2023-05-25T06:21:44.232Z,13.48
2023-05-25T06:24:13.661Z,12.65
2023-05-25T06:26:41.788Z,13.93
2023-05-25T06:29:09.909Z,12.52
2023-05-25T06:31:38.095Z,13.75
2023-05-25T06:34:06.399Z,14.18
2023-05-25T06:36:34.564Z,16.00
2023-05-25T06:39:02.730Z,15.82
2023-05-25T06:41:32.211Z,15.55
2023-05-25T06:44:00.385Z,15.18
2023-05-25T06:46:28.543Z,14.73
2023-05-25T06:48:56.713Z,14.15
2023-05-25T06:51:27.390Z,14.23
2023-05-25T06:53:57.337Z,14.70
2023-05-25T06:56:26.280Z,14.18
2023-05-25T06:58:55.765Z,13.10
2023-05-25T07:01:24.002Z,13.38
2023-05-25T07:03:52.167Z,14.45
2023-05-25T07:06:22.120Z,13.63
2023-05-25T07:08:50.317Z,14.95
2023-05-25T07:11:20.711Z,14.73
2023-05-25T07:13:48.891Z,14.27
2023-05-25T07:16:18.422Z,14.90
2023-05-25T07:18:46.603Z,16.17
2023-05-25T07:21:14.733Z,14.35
2023-05-25T07:23:42.965Z,14.15
2023-05-25T07:26:11.131Z,14.50
2023-05-25T07:28:39.299Z,15.27
2023-05-25T07:31:07.509Z,14.77
2023-05-25T07:33:37.121Z,13.27
2023-05-25T07:36:06.054Z,13.52
2023-05-25T07:38:34.246Z,11.70
2023-05-25T07:41:02.371Z,12.73
2023-05-25T07:43:30.496Z,13.23
2023-05-25T07:45:58.839Z,13.07
2023-05-25T07:48:26.963Z,11.70
2023-05-25T07:50:56.490Z,11.98
2023-05-25T07:53:24.733Z,10.30
2023-05-25T07:55:52.985Z,10.27
2023-05-25T07:58:21.373Z,10.15
2023-05-25T08:00:50.341Z,10.27
2023-05-25T08:03:20.946Z,11.18
2023-05-25T08:05:52.288Z,10.05
2023-05-25T08:08:22.060Z,11.18
2023-05-25T08:10:50.182Z,10.38
2023-05-25T08:13:18.337Z,9.30
2023-05-25T08:15:46.670Z,9.18
2023-05-25T08:18:14.843Z,9.82
2023-05-25T08:20:43.030Z,10.15
2023-05-25T08:23:11.182Z,10.70
2023-05-25T08:25:41.087Z,9.73
2023-05-25T08:28:09.152Z,10.35
2023-05-25T08:30:37.320Z,10.23
2023-05-25T08:33:06.859Z,10.73
2023-05-25T08:35:39.251Z,8.90
2023-05-25T08:38:07.575Z,9.10
2023-05-25T08:40:35.722Z,8.82
2023-05-25T08:43:05.214Z,8.60
2023-05-25T08:45:36.714Z,7.28
2023-05-25T08:48:26.870Z,8.23
2023-05-25T08:50:58.535Z,7.10
2023-05-25T08:53:29.120Z,8.32
2023-05-25T08:55:59.930Z,7.68
2023-05-25T08:58:35.092Z,10.32
2023-05-25T09:01:09.195Z,8.35
2023-05-25T09:03:39.178Z,7.15
2023-05-25T09:06:08.310Z,8.38
2023-05-25T09:08:39.299Z,7.90
2023-05-25T09:11:09.947Z,6.78
2023-05-25T09:13:41.337Z,6.93
2023-05-25T09:16:11.053Z,6.10
2023-05-25T09:18:40.132Z,7.07
2023-05-25T09:21:08.328Z,6.72
2023-05-25T09:23:38.221Z,6.78
2023-05-25T09:26:06.621Z,7.03
2023-05-25T09:28:34.677Z,6.00
2023-05-25T09:31:04.201Z,4.55
2023-05-25T09:33:33.237Z,5.35
2023-05-25T09:36:02.964Z,8.63
2023-05-25T09:38:32.110Z,5.97
2023-05-25T09:41:00.569Z,5.90
2023-05-25T09:43:40.588Z,5.75
2023-05-25T09:46:12.836Z,6.45
2023-05-25T09:48:41.315Z,5.53
2023-05-25T09:51:10.146Z,4.82
2023-05-25T09:53:38.410Z,5.93
2023-05-25T09:56:07.544Z,6.28
2023-05-25T09:58:36.037Z,5.45
2023-05-25T10:01:04.647Z,5.82
2023-05-25T10:03:34.224Z,4.85
2023-05-25T10:06:04.169Z,5.75
2023-05-25T10:08:33.474Z,5.18
2023-05-25T10:11:02.346Z,5.05
2023-05-25T10:13:33.451Z,4.82
2023-05-25T10:16:03.154Z,5.10
2023-05-25T10:18:37.592Z,5.82
2023-05-25T10:21:09.980Z,4.85
2023-05-25T10:23:46.031Z,5.30
2023-05-25T10:26:21.367Z,5.50
2023-05-25T10:28:52.805Z,7.53
2023-05-25T10:31:22.698Z,6.72
2023-05-25T10:33:52.771Z,6.50
2023-05-25T10:36:23.075Z,6.03
2023-05-25T10:38:53.146Z,5.43
2023-05-25T10:41:21.896Z,5.40
2023-05-25T10:43:53.314Z,5.10
2023-05-25T10:46:22.465Z,5.72
2023-05-25T10:48:52.826Z,5.20
2023-05-25T10:51:21.519Z,5.40
2023-05-25T10:54:01.654Z,6.03
2023-05-25T10:56:29.798Z,5.95
2023-05-25T10:58:58.067Z,5.65
2023-05-25T11:01:26.918Z,5.75
2023-05-25T11:04:17.503Z,5.50
2023-05-25T11:07:13.494Z,6.32
2023-05-25T11:09:58.147Z,5.07
2023-05-25T11:12:27.870Z,5.55
2023-05-25T11:15:16.218Z,4.82
2023-05-25T11:18:01.302Z,5.10
2023-05-25T11:20:31.885Z,4.75
2023-05-25T11:23:00.059Z,5.10
2023-05-25T11:25:41.271Z,5.10
2023-05-25T11:28:11.583Z,4.40
2023-05-25T11:30:42.564Z,4.75
2023-05-25T11:33:11.374Z,4.80
2023-05-25T11:35:45.403Z,4.97
2023-05-25T11:38:13.819Z,4.20
2023-05-25T11:40:41.916Z,3.90
2023-05-25T11:43:10.748Z,4.30
2023-05-25T11:45:39.261Z,4.50
2023-05-25T11:48:08.220Z,4.10
2023-05-25T11:50:36.451Z,5.00
2023-05-25T11:53:08.100Z,5.18
2023-05-25T11:55:40.083Z,4.90
2023-05-25T11:58:08.213Z,5.40
2023-05-25T12:00:36.305Z,3.97
2023-05-25T12:03:05.682Z,4.60
2023-05-25T12:05:40.665Z,4.20
2023-05-25T12:08:10.174Z,4.00
2023-05-25T12:10:51.960Z,4.72
2023-05-25T12:13:21.339Z,4.55
2023-05-25T12:15:49.614Z,4.43
2023-05-25T12:18:18.108Z,4.53
2023-05-25T12:20:46.600Z,4.80
2023-05-25T12:23:16.852Z,4.80
2023-05-25T12:25:51.030Z,4.85
2023-05-25T12:28:19.538Z,4.55
2023-05-25T12:30:47.942Z,4.05
2023-05-25T12:33:16.510Z,4.80
2023-05-25T12:35:49.624Z,4.57
2023-05-25T12:38:22.086Z,4.45
2023-05-25T12:41:07.033Z,4.90
2023-05-25T12:43:39.930Z,4.22
2023-05-25T12:46:08.090Z,5.10
2023-05-25T12:48:36.329Z,4.82
2023-05-25T12:51:04.688Z,4.57
2023-05-25T12:53:50.902Z,5.13
2023-05-25T12:56:19.289Z,4.47
2023-05-25T12:58:47.509Z,4.93
2023-05-25T13:01:15.619Z,4.25
2023-05-25T13:03:43.690Z,4.45
2023-05-25T13:06:11.750Z,4.82
2023-05-25T13:08:41.380Z,4.60
2023-05-25T13:11:09.654Z,5.10
2023-05-25T13:13:37.928Z,4.70
2023-05-25T13:16:06.659Z,4.57
2023-05-25T13:18:34.766Z,4.75
2023-05-25T13:21:03.050Z,4.50
2023-05-25T13:23:32.269Z,4.45
2023-05-25T13:26:01.677Z,4.80
2023-05-25T13:28:29.771Z,4.80
2023-05-25T13:30:57.880Z,4.63
2023-05-25T13:33:25.991Z,5.20
2023-05-25T13:36:08.369Z,5.05
2023-05-25T13:38:38.102Z,4.50
2023-05-25T13:41:07.638Z,4.70
2023-05-25T13:43:36.056Z,4.68
2023-05-25T13:46:04.318Z,4.50
2023-05-25T13:48:32.456Z,5.20
2023-05-25T13:51:00.573Z,4.78
2023-05-25T13:53:28.677Z,5.30
2023-05-25T13:55:56.744Z,5.00
2023-05-25T13:58:26.262Z,4.50
2023-05-25T14:00:54.390Z,5.38
2023-05-25T14:03:22.709Z,4.50
2023-05-25T14:05:51.304Z,5.22
2023-05-25T14:08:19.333Z,5.15
2023-05-25T14:10:47.535Z,5.13
2023-05-25T14:13:15.892Z,4.88
2023-05-25T14:15:46.751Z,5.00
2023-05-25T14:18:15.204Z,5.55
2023-05-25T14:20:43.366Z,5.53
2023-05-25T14:23:14.218Z,5.57
2023-05-25T14:25:48.896Z,5.40
2023-05-25T14:28:17.025Z,5.60
2023-05-25T14:30:46.508Z,5.18
2023-05-25T14:33:17.221Z,5.53
2023-05-25T14:35:45.680Z,4.80
2023-05-25T14:38:14.238Z,5.35
2023-05-25T14:40:42.348Z,4.88
2023-05-25T14:43:15.916Z,4.63
2023-05-25T14:45:44.261Z,4.88
2023-05-25T14:48:16.936Z,4.82
2023-05-25T14:50:45.783Z,5.15
2023-05-25T14:53:14.560Z,4.80
2023-05-25T14:55:42.939Z,4.30
2023-05-25T14:58:11.869Z,4.10
2023-05-25T15:00:39.932Z,4.72
2023-05-25T15:03:08.166Z,4.80
2023-05-25T15:05:37.770Z,4.53
2023-05-25T15:08:06.237Z,5.00
2023-05-25T15:10:34.340Z,4.90
2023-05-25T15:13:02.442Z,4.70
2023-05-25T15:15:30.845Z,4.68
2023-05-25T15:17:58.987Z,4.93
2023-05-25T15:20:27.167Z,4.15
2023-05-25T15:22:56.618Z,5.00
2023-05-25T15:27:59.565Z,5.15
2023-05-25T15:30:27.811Z,4.47
2023-05-25T15:32:55.948Z,4.82
2023-05-25T15:35:31.029Z,4.53
2023-05-25T15:38:00.877Z,5.03
2023-05-25T15:40:29.156Z,4.88
2023-05-25T15:42:57.232Z,4.57
2023-05-25T15:45:26.171Z,4.70
2023-05-25T15:47:54.384Z,4.90
2023-05-25T15:50:22.569Z,4.70
2023-05-25T15:52:50.730Z,4.70
2023-05-25T15:55:20.573Z,4.63
2023-05-25T15:57:48.757Z,4.75
2023-05-25T16:00:17.893Z,4.82
2023-05-25T16:02:46.091Z,4.80
2023-05-25T16:05:14.305Z,4.22
2023-05-25T16:07:42.505Z,4.47
2023-05-25T16:10:11.453Z,4.70
2023-05-25T16:12:41.032Z,4.15
2023-05-25T16:15:10.545Z,4.03
2023-05-25T16:17:38.702Z,4.60
2023-05-25T16:20:09.264Z,5.10
2023-05-25T16:22:37.360Z,4.40
2023-05-25T16:25:06.373Z,4.50
2023-05-25T16:27:34.536Z,5.13
2023-05-25T16:30:04.224Z,4.53
2023-05-25T16:32:32.771Z,4.88
2023-05-25T16:35:01.520Z,4.63
2023-05-25T16:37:29.620Z,4.70
2023-05-25T16:39:57.732Z,4.82
2023-05-25T16:42:26.409Z,4.72
2023-05-25T16:44:54.448Z,4.70
2023-05-25T16:47:24.146Z,4.70
2023-05-25T16:49:52.231Z,5.15
2023-05-25T16:52:20.349Z,5.10
2023-05-25T16:54:48.430Z,4.53
2023-05-25T16:57:16.520Z,4.60
2023-05-25T16:59:45.571Z,4.75
2023-05-25T17:02:13.709Z,4.30
2023-05-25T17:04:43.464Z,4.78
2023-05-25T17:07:11.592Z,5.07
2023-05-25T17:09:39.819Z,5.00
2023-05-25T17:12:09.221Z,5.10
2023-05-25T17:14:37.384Z,5.35
2023-05-25T17:17:06.134Z,4.47
2023-05-25T17:19:34.636Z,4.65
2023-05-25T17:22:04.231Z,4.75
2023-05-25T17:24:32.363Z,4.53
2023-05-25T17:27:01.709Z,5.00
2023-05-25T17:29:29.840Z,5.20
2023-05-25T17:31:58.015Z,5.43
2023-05-25T17:34:26.171Z,4.25
2023-05-25T17:36:54.293Z,5.35
2023-05-25T17:39:23.773Z,5.05
2023-05-25T17:41:52.012Z,4.90
2023-05-25T17:44:20.191Z,5.10
2023-05-25T17:46:48.578Z,4.50
2023-05-25T17:49:16.738Z,5.40
2023-05-25T17:51:44.850Z,5.07
2023-05-25T17:54:15.338Z,4.63
2023-05-25T17:56:44.859Z,4.15
2023-05-25T17:59:13.251Z,4.55
2023-05-25T18:01:41.795Z,4.75
2023-05-25T18:04:10.276Z,4.40
2023-05-25T18:06:38.535Z,4.63
2023-05-25T18:09:06.938Z,4.55
2023-05-25T18:11:36.519Z,4.43
2023-05-25T18:14:06.237Z,4.10
2023-05-25T18:16:39.482Z,4.05
2023-05-25T18:19:09.393Z,3.53
2023-05-25T18:21:39.190Z,4.10
2023-05-25T18:24:08.988Z,4.13
2023-05-25T18:26:37.142Z,4.32
2023-05-25T18:29:06.675Z,4.40
2023-05-25T18:31:34.967Z,4.03
2023-05-25T18:34:03.281Z,4.40
2023-05-25T18:36:33.038Z,3.92
2023-05-25T18:39:01.280Z,4.05
2023-05-25T18:41:29.639Z,4.28
2023-05-25T18:43:58.219Z,4.28
2023-05-25T18:46:28.833Z,3.50
2023-05-25T18:48:57.286Z,3.78
2023-05-25T18:51:25.882Z,4.30
2023-05-25T18:53:54.738Z,4.05
2023-05-25T18:56:22.905Z,4.25
2023-05-25T18:58:52.100Z,4.22
2023-05-25T19:01:20.391Z,3.78
2023-05-25T19:03:49.972Z,4.40
2023-05-25T19:06:18.266Z,4.78
2023-05-25T19:08:46.510Z,4.80
2023-05-25T19:11:15.525Z,4.88
2023-05-25T19:13:44.124Z,4.05
2023-05-25T19:16:12.490Z,4.43
2023-05-25T19:18:40.726Z,4.35
2023-05-25T19:21:10.320Z,4.93
2023-05-25T19:23:38.537Z,4.40
2023-05-25T19:26:06.740Z,3.88
2023-05-25T19:28:35.061Z,4.55
2023-05-25T19:31:03.273Z,5.18
2023-05-25T19:33:31.466Z,4.70
2023-05-25T19:35:59.642Z,5.03
2023-05-25T19:38:40.343Z,4.70
2023-05-25T19:41:09.239Z,4.78
2023-05-25T19:43:38.236Z,5.68
2023-05-25T19:46:06.831Z,5.45
2023-05-25T19:48:35.258Z,5.50
2023-05-25T19:51:03.454Z,5.80
2023-05-25T19:53:33.040Z,5.90
2023-05-25T19:56:03.164Z,5.75
2023-05-25T19:58:31.529Z,6.18
2023-05-25T20:01:00.064Z,6.32
2023-05-25T20:03:28.353Z,6.20
2023-05-25T20:05:57.778Z,5.93
2023-05-25T20:08:27.175Z,5.70
2023-05-25T20:10:56.737Z,5.43
2023-05-25T20:13:25.045Z,5.30
2023-05-25T20:15:53.486Z,6.23
2023-05-25T20:18:23.873Z,6.20
2023-05-25T20:20:52.437Z,5.95
2023-05-25T20:23:20.822Z,6.57
2023-05-25T20:25:49.199Z,7.47
2023-05-25T20:28:19.573Z,6.67
2023-05-25T20:30:47.952Z,6.60
2023-05-25T20:33:16.347Z,6.53
2023-05-25T20:35:44.688Z,6.30
2023-05-25T20:38:13.132Z,6.40
2023-05-25T20:40:41.274Z,6.40
2023-05-25T20:43:09.413Z,6.63
2023-05-25T20:45:38.972Z,6.20
2023-05-25T20:48:07.417Z,6.43
2023-05-25T20:50:35.590Z,5.90
2023-05-25T20:53:03.952Z,5.70
2023-05-25T20:55:32.096Z,6.63
2023-05-25T20:58:00.989Z,6.70
2023-05-25T21:00:29.262Z,6.50
2023-05-25T21:02:59.153Z,6.77
2023-05-25T21:05:27.340Z,7.80
2023-05-25T21:07:55.477Z,7.87
2023-05-25T21:10:23.673Z,6.73
2023-05-25T21:12:51.984Z,6.60
2023-05-25T21:15:20.083Z,7.07
2023-05-25T21:17:48.262Z,6.97
2023-05-25T21:20:18.051Z,5.80
2023-05-25T21:22:46.258Z,6.57
2023-05-25T21:25:14.432Z,6.75
2023-05-25T21:27:42.744Z,6.23
2023-05-25T21:30:12.130Z,6.63
2023-05-25T21:32:40.997Z,6.57
2023-05-25T21:35:09.288Z,5.83
2023-05-25T21:37:38.817Z,6.63
2023-05-25T21:40:08.873Z,6.83
2023-05-25T21:42:37.260Z,6.07
2023-05-25T21:45:06.332Z,6.67
2023-05-25T21:47:34.424Z,6.63
2023-05-25T21:50:02.671Z,6.97
2023-05-25T21:52:30.842Z,6.97
2023-05-25T21:55:00.337Z,6.97
2023-05-25T21:57:28.483Z,6.33
2023-05-25T21:59:56.568Z,6.10
2023-05-25T22:02:24.852Z,5.97
2023-05-25T22:04:53.074Z,6.03
2023-05-25T22:07:21.272Z,5.97
2023-05-25T22:09:49.409Z,6.40
2023-05-25T22:12:20.636Z,5.87
2023-05-25T22:14:49.184Z,6.00
2023-05-25T22:17:18.879Z,7.07
2023-05-25T22:19:55.243Z,6.23
2023-05-25T22:22:23.910Z,6.30
2023-05-25T22:24:52.233Z,6.40
2023-05-25T22:27:21.903Z,6.30
2023-05-25T22:29:50.243Z,6.73
2023-05-25T22:32:18.365Z,6.17
2023-05-25T22:34:47.241Z,6.17
2023-05-25T22:37:17.233Z,6.13
2023-05-25T22:39:45.868Z,7.23
2023-05-25T22:42:14.027Z,6.23
2023-05-25T22:44:43.554Z,5.90
2023-05-25T22:47:11.755Z,6.70
2023-05-25T22:49:43.002Z,6.67
2023-05-25T22:52:13.274Z,6.93
2023-05-25T22:54:41.403Z,6.47
2023-05-25T22:57:11.113Z,6.23
2023-05-25T22:59:39.230Z,6.57
2023-05-25T23:02:08.920Z,6.87
2023-05-25T23:04:37.354Z,6.57
2023-05-25T23:07:06.051Z,6.60
2023-05-25T23:09:34.229Z,6.73
2023-05-25T23:12:02.707Z,6.83
2023-05-25T23:14:31.340Z,6.37
2023-05-25T23:16:59.468Z,6.97
2023-05-25T23:19:29.052Z,6.57
2023-05-25T23:21:58.561Z,6.40
2023-05-25T23:24:26.963Z,6.77
2023-05-25T23:26:55.064Z,6.63
2023-05-25T23:29:23.258Z,6.60
2023-05-25T23:31:51.461Z,6.90
2023-05-25T23:34:19.890Z,6.77
2023-05-25T23:36:49.390Z,6.80
2023-05-25T23:39:17.819Z,7.10
2023-05-25T23:41:45.946Z,7.03
2023-05-25T23:44:14.282Z,6.23
2023-05-25T23:46:42.670Z,6.77
2023-05-25T23:49:10.840Z,6.37
2023-05-25T23:51:38.989Z,6.97
2023-05-25T23:54:08.744Z,6.80
2023-05-25T23:56:36.865Z,6.10
2023-05-25T23:59:05.262Z,6.87
